Mont-Royal, Canada
Current Conditions -  °F | °C
As of 2:00 AM on Saturday 20 Dec 2014 (Local Time) from CYUL Reporting Station
Few Clouds Few Clouds  
Wind Chill: 12°   Ceiling: Unl
Heat Index: 12°   Visibility: 15mi
Dew Point:   Wind: 3mph
Humidity: 85%   Direction: 280°W
Pressure: 30.28"   Gusts: NA
Location:  45.52°N, 73.65°W
Report Text: CYUL 200700Z 28003KT 15SM FEW010 M11/M13 A3028 RMK SF1 SF TR SLP255
Loading
Personal Weather Stations






























Interactive Weather Map New forecast layout! Learn more

10-Day Weather Forecast

Advertisements
Track Severe Weather on mobile